Time;durP1;ratioP1;P1;durP2;ratioP2;P2;SDS_P1;SDS_P2;PMS_P1;PMS_P2;Temp;Humidity;BMP_temperature;BMP_pressure;BME280_temperature;BME280_humidity;BME280_pressure;Samples;Min_cycle;Max_cycle;Signal;HPM_P1;HPM_P2
2023/10/13 00:01:11;;;;;;;22.35;6.90;;;;;;;;;;5014058;28;20421;-78
2023/10/13 00:03:39;;;;;;;21.80;6.20;;;;;;;;;;5013123;28;20508;-79
2023/10/13 00:06:06;;;;;;;21.30;5.97;;;;;;;;;;5017487;28;20408;-78
2023/10/13 00:08:36;;;;;;;21.90;6.53;;;;;;;;;;5044560;28;20467;-78
2023/10/13 00:11:04;;;;;;;24.93;6.87;;;;;;;;;;5035983;28;20479;-77
2023/10/13 00:13:50;;;;;;;24.58;7.47;;;;;;;;;;5014287;28;20416;-77
2023/10/13 00:16:18;;;;;;;23.48;6.32;;;;;;;;;;5011972;28;20404;-79
2023/10/13 00:18:45;;;;;;;21.65;6.22;;;;;;;;;;5045651;28;20979;-78
2023/10/13 00:21:15;;;;;;;24.90;7.00;;;;;;;;;;5013646;28;20486;-78
2023/10/13 00:23:52;;;;;;;20.50;6.20;;;;;;;;;;5010719;28;20421;-80
2023/10/13 00:26:18;;;;;;;22.70;7.07;;;;;;;;;;5025796;28;20432;-78
2023/10/13 00:28:58;;;;;;;23.98;6.88;;;;;;;;;;5044204;28;20405;-78
2023/10/13 00:31:36;;;;;;;23.13;7.40;;;;;;;;;;5022856;28;20481;-79
2023/10/13 00:34:26;;;;;;;25.73;7.30;;;;;;;;;;5036563;28;20924;-78
2023/10/13 00:39:44;;;;;;;26.85;7.65;;;;;;;;;;5010124;28;20433;-79
2023/10/13 00:42:23;;;;;;;25.75;6.90;;;;;;;;;;5043467;28;20420;-75
2023/10/13 00:44:54;;;;;;;30.98;7.80;;;;;;;;;;5043276;28;20475;-76
2023/10/13 00:50:03;;;;;;;22.95;7.03;;;;;;;;;;5010555;28;20420;-75
2023/10/13 00:52:30;;;;;;;23.20;7.13;;;;;;;;;;5011036;28;20877;-76
2023/10/13 00:54:59;;;;;;;26.10;7.57;;;;;;;;;;5011204;28;20975;-77
2023/10/13 00:57:26;;;;;;;21.90;6.63;;;;;;;;;;4996332;28;20503;-77
2023/10/13 00:59:57;;;;;;;22.50;7.20;;;;;;;;;;5026710;28;20925;-76
2023/10/13 01:05:03;;;;;;;22.42;7.75;;;;;;;;;;5009452;28;20466;-78
2023/10/13 01:07:30;;;;;;;23.50;7.50;;;;;;;;;;5012231;28;20475;-77
2023/10/13 01:09:56;;;;;;;22.42;6.88;;;;;;;;;;5015231;28;20409;-76
2023/10/13 01:12:23;;;;;;;21.17;7.60;;;;;;;;;;5011040;28;20416;-76
2023/10/13 01:14:50;;;;;;;23.20;6.60;;;;;;;;;;5012673;28;20429;-77
2023/10/13 01:17:18;;;;;;;23.50;6.97;;;;;;;;;;5009754;28;20748;-77
2023/10/13 01:19:45;;;;;;;23.08;7.82;;;;;;;;;;5010473;28;20786;-77
2023/10/13 01:22:12;;;;;;;22.10;6.75;;;;;;;;;;5009911;28;20431;-78
2023/10/13 01:24:40;;;;;;;25.98;7.45;;;;;;;;;;5001943;28;20432;-77
2023/10/13 01:27:25;;;;;;;21.65;7.07;;;;;;;;;;5026104;28;20420;-77
2023/10/13 01:29:58;;;;;;;24.08;7.07;;;;;;;;;;5010228;28;20517;-76
2023/10/13 01:32:25;;;;;;;21.52;6.75;;;;;;;;;;5010523;28;20492;-78
2023/10/13 01:34:55;;;;;;;22.57;7.00;;;;;;;;;;5024856;28;20996;-77
2023/10/13 01:37:22;;;;;;;24.13;7.57;;;;;;;;;;5011596;28;20459;-76
2023/10/13 01:39:51;;;;;;;23.27;6.93;;;;;;;;;;5010135;28;20789;-76
2023/10/13 01:42:21;;;;;;;22.33;7.07;;;;;;;;;;5010622;28;20504;-76
2023/10/13 01:44:49;;;;;;;22.27;7.30;;;;;;;;;;5010238;28;20416;-76
2023/10/13 01:47:22;;;;;;;24.17;7.47;;;;;;;;;;5007837;28;20499;-76
2023/10/13 01:49:50;;;;;;;22.30;7.22;;;;;;;;;;5010507;28;20420;-76
2023/10/13 01:52:17;;;;;;;23.05;7.28;;;;;;;;;;5008918;28;20421;-75
2023/10/13 01:54:45;;;;;;;23.25;7.35;;;;;;;;;;5007831;28;20425;-77
2023/10/13 01:57:14;;;;;;;26.38;7.93;;;;;;;;;;5043081;28;20765;-77
2023/10/13 01:59:43;;;;;;;21.17;6.80;;;;;;;;;;5042710;28;20421;-77
2023/10/13 02:02:14;;;;;;;22.48;6.80;;;;;;;;;;5010398;28;20750;-78
2023/10/13 02:04:48;;;;;;;24.35;7.95;;;;;;;;;;5018458;28;20416;-76
2023/10/13 02:07:16;;;;;;;25.57;7.90;;;;;;;;;;5026445;28;20470;-77
2023/10/13 02:09:42;;;;;;;24.83;7.53;;;;;;;;;;5027085;28;20447;-76
2023/10/13 02:12:10;;;;;;;23.27;8.07;;;;;;;;;;5042419;28;20566;-76
2023/10/13 02:14:38;;;;;;;23.17;7.80;;;;;;;;;;5003700;28;20407;-76
2023/10/13 02:17:13;;;;;;;22.92;7.63;;;;;;;;;;5009170;28;20429;-76
2023/10/13 02:19:44;;;;;;;26.35;7.65;;;;;;;;;;5010443;28;20436;-75
2023/10/13 02:22:12;;;;;;;27.25;7.53;;;;;;;;;;5011593;28;20420;-76
2023/10/13 02:24:51;;;;;;;22.83;7.10;;;;;;;;;;5043773;28;20432;-78
2023/10/13 02:27:22;;;;;;;23.05;8.00;;;;;;;;;;5019731;28;20432;-77
2023/10/13 02:29:58;;;;;;;24.65;7.38;;;;;;;;;;5011699;28;20470;-78
2023/10/13 02:32:26;;;;;;;23.07;7.63;;;;;;;;;;5012835;28;20424;-76
2023/10/13 02:34:57;;;;;;;21.95;7.90;;;;;;;;;;5014515;28;20499;-76
2023/10/13 02:37:24;;;;;;;24.90;7.32;;;;;;;;;;5013174;28;20538;-76
2023/10/13 02:39:51;;;;;;;25.27;7.28;;;;;;;;;;5013708;28;20424;-77
2023/10/13 02:42:24;;;;;;;22.10;7.20;;;;;;;;;;5024877;28;20421;-76
2023/10/13 02:44:55;;;;;;;25.83;7.30;;;;;;;;;;5017100;28;20488;-77
2023/10/13 02:47:24;;;;;;;23.85;7.50;;;;;;;;;;5045166;28;20981;-76
2023/10/13 02:49:51;;;;;;;24.48;7.80;;;;;;;;;;5013928;28;20405;-76
2023/10/13 02:52:17;;;;;;;23.65;8.00;;;;;;;;;;5012841;28;20448;-78
2023/10/13 02:54:47;;;;;;;25.05;8.20;;;;;;;;;;5029116;28;20506;-77
2023/10/13 02:57:15;;;;;;;24.13;7.13;;;;;;;;;;5011576;28;20412;-76
2023/10/13 02:59:55;;;;;;;24.90;8.20;;;;;;;;;;5045670;28;20425;-76
2023/10/13 03:02:28;;;;;;;25.20;8.10;;;;;;;;;;5011233;28;20427;-76
2023/10/13 03:05:13;;;;;;;23.27;7.50;;;;;;;;;;5012048;28;20444;-76
2023/10/13 03:07:43;;;;;;;23.88;8.10;;;;;;;;;;5013036;28;20416;-77
2023/10/13 03:10:10;;;;;;;21.63;7.38;;;;;;;;;;5011720;28;20889;-77
2023/10/13 03:12:37;;;;;;;22.15;8.25;;;;;;;;;;5003431;28;20740;-77
2023/10/13 03:17:44;;;;;;;25.35;8.25;;;;;;;;;;5014062;28;20466;-76
2023/10/13 03:20:15;;;;;;;22.88;7.60;;;;;;;;;;5010321;28;20416;-78
2023/10/13 03:22:45;;;;;;;26.40;7.65;;;;;;;;;;5002875;28;20513;-77
2023/10/13 03:25:23;;;;;;;25.25;7.53;;;;;;;;;;5012561;28;20428;-79
2023/10/13 03:30:18;;;;;;;23.00;7.57;;;;;;;;;;5013554;28;20404;-77
2023/10/13 03:32:48;;;;;;;22.55;7.57;;;;;;;;;;5011606;28;20524;-78
2023/10/13 03:35:24;;;;;;;23.95;7.70;;;;;;;;;;4994151;28;20908;-78
2023/10/13 03:37:52;;;;;;;23.98;7.63;;;;;;;;;;5014147;28;20413;-79
2023/10/13 03:45:38;;;;;;;24.00;7.75;;;;;;;;;;5012676;28;20451;-79
2023/10/13 03:48:11;;;;;;;26.70;7.90;;;;;;;;;;5012150;28;20904;-80
2023/10/13 03:50:57;;;;;;;24.70;7.60;;;;;;;;;;5042638;28;20898;-80
2023/10/13 03:53:25;;;;;;;24.55;7.80;;;;;;;;;;5009962;28;20422;-78
2023/10/13 03:56:07;;;;;;;26.20;8.60;;;;;;;;;;5011991;28;20750;-77
2023/10/13 03:58:35;;;;;;;22.45;8.00;;;;;;;;;;4996068;28;20420;-78
2023/10/13 04:01:01;;;;;;;24.02;8.30;;;;;;;;;;5011732;28;20857;-79
2023/10/13 04:03:38;;;;;;;26.03;8.83;;;;;;;;;;5011455;28;20806;-78
2023/10/13 04:06:07;;;;;;;25.20;8.40;;;;;;;;;;5002753;28;20422;-79
2023/10/13 04:16:51;;;;;;;24.13;8.48;;;;;;;;;;5012625;28;20814;-77
2023/10/13 04:19:22;;;;;;;23.80;7.80;;;;;;;;;;5011958;28;20480;-77
2023/10/13 04:21:59;;;;;;;25.58;8.75;;;;;;;;;;5012206;28;20420;-78
2023/10/13 04:32:15;;;;;;;26.25;8.25;;;;;;;;;;5019136;28;20428;-78
2023/10/13 04:34:45;;;;;;;25.95;8.40;;;;;;;;;;5011995;28;20537;-78
2023/10/13 04:37:33;;;;;;;26.40;8.10;;;;;;;;;;5011446;28;20416;-77
2023/10/13 04:40:09;;;;;;;23.70;7.33;;;;;;;;;;5008865;28;20623;-77
2023/10/13 04:42:49;;;;;;;23.08;8.07;;;;;;;;;;5011865;28;20426;-77
2023/10/13 04:45:38;;;;;;;26.05;7.63;;;;;;;;;;5011206;28;20405;-76
2023/10/13 04:50:58;;;;;;;24.42;8.25;;;;;;;;;;5011769;28;20874;-77
2023/10/13 04:53:33;;;;;;;23.60;8.18;;;;;;;;;;5009592;28;20496;-77
2023/10/13 06:28:43;;;;;;;24.73;7.25;;;;;;;;;;5027506;28;20726;-81
2023/10/13 06:31:21;;;;;;;24.20;8.00;;;;;;;;;;5010766;28;20412;-80
2023/10/13 06:33:48;;;;;;;27.85;8.35;;;;;;;;;;5011992;28;20408;-79
2023/10/13 06:36:17;;;;;;;23.40;7.40;;;;;;;;;;5012492;28;20507;-77
2023/10/13 06:38:44;;;;;;;23.95;6.90;;;;;;;;;;5010426;28;20523;-78
2023/10/13 06:41:19;;;;;;;25.23;7.28;;;;;;;;;;5011917;28;20471;-79
2023/10/13 06:43:59;;;;;;;23.58;7.68;;;;;;;;;;5024568;28;20496;-80
2023/10/13 06:46:28;;;;;;;23.42;6.28;;;;;;;;;;5024827;28;20422;-81
2023/10/13 06:48:55;;;;;;;23.75;7.20;;;;;;;;;;5012597;28;20413;-82
2023/10/13 06:51:26;;;;;;;23.13;6.78;;;;;;;;;;5028980;28;20427;-80
2023/10/13 06:53:56;;;;;;;23.23;6.70;;;;;;;;;;5011803;28;20455;-80
2023/10/13 06:56:27;;;;;;;23.50;6.65;;;;;;;;;;4996268;28;20456;-80
2023/10/13 06:59:04;;;;;;;28.58;7.15;;;;;;;;;;5012425;28;20408;-79
2023/10/13 07:01:38;;;;;;;25.33;6.93;;;;;;;;;;4995160;28;20429;-79
2023/10/13 07:04:12;;;;;;;25.23;7.88;;;;;;;;;;5012958;28;20405;-80
2023/10/13 07:06:44;;;;;;;23.05;7.10;;;;;;;;;;5012161;28;20986;-81
2023/10/13 07:09:37;;;;;;;22.80;6.78;;;;;;;;;;5013114;28;20455;-80
2023/10/13 07:12:00;;;;;;;22.47;6.33;;;;;;;;;;5018018;28;20837;-81
2023/10/13 07:14:28;;;;;;;24.75;6.10;;;;;;;;;;5014210;28;20769;-80
2023/10/13 07:16:58;;;;;;;22.67;6.53;;;;;;;;;;5011248;28;20769;-78
2023/10/13 07:19:27;;;;;;;23.97;6.60;;;;;;;;;;5012790;28;20419;-78
2023/10/13 07:21:58;;;;;;;24.50;5.85;;;;;;;;;;5011592;28;20432;-80
2023/10/13 07:24:27;;;;;;;21.17;5.90;;;;;;;;;;5044462;28;20528;-80
2023/10/13 07:27:02;;;;;;;22.58;6.15;;;;;;;;;;5045482;28;20769;-80
2023/10/13 07:29:33;;;;;;;23.27;6.60;;;;;;;;;;5008578;28;20431;-79
2023/10/13 07:32:02;;;;;;;27.30;7.00;;;;;;;;;;5009145;28;20825;-81
2023/10/13 07:34:32;;;;;;;20.85;5.40;;;;;;;;;;5009546;28;20925;-80
2023/10/13 07:36:59;;;;;;;23.33;5.60;;;;;;;;;;5010664;28;20531;-81
2023/10/13 07:39:28;;;;;;;25.10;5.57;;;;;;;;;;5045005;28;20444;-80
2023/10/13 07:42:03;;;;;;;24.50;6.28;;;;;;;;;;5012758;28;20979;-80
2023/10/13 07:44:34;;;;;;;20.90;5.22;;;;;;;;;;5028678;28;20439;-79
2023/10/13 07:47:07;;;;;;;25.17;5.65;;;;;;;;;;5044445;28;20420;-80
2023/10/13 07:49:37;;;;;;;24.15;5.40;;;;;;;;;;4994215;28;20419;-79
2023/10/13 07:52:25;;;;;;;22.75;5.88;;;;;;;;;;4998374;28;20877;-80
2023/10/13 07:55:03;;;;;;;25.27;6.63;;;;;;;;;;5008173;28;20422;-80
2023/10/13 07:57:29;;;;;;;23.00;5.90;;;;;;;;;;5001715;28;20460;-80
2023/10/13 08:00:11;;;;;;;20.65;5.30;;;;;;;;;;5044940;28;20427;-80
2023/10/13 08:02:51;;;;;;;23.98;5.50;;;;;;;;;;5011116;28;20458;-79
2023/10/13 08:05:29;;;;;;;23.13;5.67;;;;;;;;;;5010996;28;20440;-78
2023/10/13 08:07:56;;;;;;;20.57;6.00;;;;;;;;;;5031369;28;20952;-80
2023/10/13 08:10:29;;;;;;;24.48;4.60;;;;;;;;;;5010982;28;20529;-81
2023/10/13 08:12:58;;;;;;;24.38;5.30;;;;;;;;;;5010991;28;20529;-80
2023/10/13 08:15:33;;;;;;;22.38;5.60;;;;;;;;;;4994381;28;20413;-80
2023/10/13 08:18:17;;;;;;;24.58;5.82;;;;;;;;;;5011467;28;20483;-80
2023/10/13 08:20:44;;;;;;;23.02;4.93;;;;;;;;;;5042601;28;20511;-80
2023/10/13 08:23:13;;;;;;;23.00;5.57;;;;;;;;;;5023747;28;20587;-79
2023/10/13 08:31:26;;;;;;;21.67;4.97;;;;;;;;;;5009731;28;20930;-79
2023/10/13 08:34:06;;;;;;;24.30;5.20;;;;;;;;;;5013901;28;20873;-78
2023/10/13 08:36:37;;;;;;;19.10;4.22;;;;;;;;;;5011488;28;20484;-79
2023/10/13 08:39:39;;;;;;;22.08;4.05;;;;;;;;;;5010853;28;20495;-78
2023/10/13 08:42:11;;;;;;;26.23;4.88;;;;;;;;;;5011473;28;20428;-78
2023/10/13 08:44:43;;;;;;;21.30;5.07;;;;;;;;;;5006293;28;20456;-77
2023/10/13 08:47:18;;;;;;;22.60;4.07;;;;;;;;;;5010020;28;20420;-78
2023/10/13 08:49:52;;;;;;;27.38;5.05;;;;;;;;;;5024768;28;20988;-77
2023/10/13 08:56:02;;;;;;;24.10;5.05;;;;;;;;;;5009389;28;20404;-76
2023/10/13 08:57:53;;;;;;;20.27;4.43;;;;;;;;;;5009410;28;20890;-78
2023/10/13 09:00:55;;;;;;;20.73;3.78;;;;;;;;;;5010953;28;20912;-75
2023/10/13 09:03:28;;;;;;;22.30;4.22;;;;;;;;;;5041043;28;20421;-77
2023/10/13 09:06:01;;;;;;;22.35;4.05;;;;;;;;;;5011006;28;20413;-75
2023/10/13 09:11:14;;;;;;;20.55;4.22;;;;;;;;;;5009973;28;20400;-75
2023/10/13 09:13:44;;;;;;;21.50;4.00;;;;;;;;;;5024444;28;20474;-75
2023/10/13 09:19:05;;;;;;;20.90;3.50;;;;;;;;;;5022877;28;20417;-76
2023/10/13 09:24:21;;;;;;;23.05;5.00;;;;;;;;;;5010914;28;20495;-76
2023/10/13 09:26:53;;;;;;;22.50;3.80;;;;;;;;;;5042060;28;20423;-75
2023/10/13 09:29:20;;;;;;;17.87;3.77;;;;;;;;;;5042472;28;20397;-75
2023/10/13 09:31:48;;;;;;;20.40;4.50;;;;;;;;;;5008395;28;20416;-75
2023/10/13 09:34:33;;;;;;;19.20;4.43;;;;;;;;;;5010182;28;20408;-73
2023/10/13 09:37:06;;;;;;;22.52;4.88;;;;;;;;;;5006711;28;20413;-74
2023/10/13 09:39:48;;;;;;;19.90;3.90;;;;;;;;;;5025857;28;20425;-76
2023/10/13 09:42:18;;;;;;;21.20;4.40;;;;;;;;;;5030461;28;20435;-75
2023/10/13 09:44:51;;;;;;;24.88;4.57;;;;;;;;;;5016262;28;20500;-75
2023/10/13 09:47:24;;;;;;;17.90;3.70;;;;;;;;;;5012323;28;20455;-76
2023/10/13 09:49:57;;;;;;;24.63;4.60;;;;;;;;;;5003202;28;20511;-77
2023/10/13 09:52:27;;;;;;;22.00;4.40;;;;;;;;;;5011872;28;20867;-75
2023/10/13 09:55:08;;;;;;;19.75;4.03;;;;;;;;;;5019521;28;20561;-75
2023/10/13 09:57:40;;;;;;;20.00;4.25;;;;;;;;;;5045133;28;20415;-76
2023/10/13 10:00:28;;;;;;;20.60;4.20;;;;;;;;;;5014212;28;20455;-77
2023/10/13 10:02:58;;;;;;;18.40;3.63;;;;;;;;;;5012825;28;20416;-77
2023/10/13 10:05:26;;;;;;;20.77;4.80;;;;;;;;;;5043051;28;20404;-75
2023/10/13 10:07:58;;;;;;;22.17;4.40;;;;;;;;;;5018667;28;20808;-75
2023/10/13 10:10:33;;;;;;;17.65;3.90;;;;;;;;;;5012482;28;20551;-76
2023/10/13 10:13:05;;;;;;;21.50;4.50;;;;;;;;;;5014098;28;20419;-76
2023/10/13 10:15:43;;;;;;;19.73;4.03;;;;;;;;;;5046419;28;20816;-75
2023/10/13 10:18:19;;;;;;;20.30;4.13;;;;;;;;;;5013420;28;20409;-76
2023/10/13 10:20:51;;;;;;;21.23;4.68;;;;;;;;;;5013025;28;20491;-74
2023/10/13 10:23:25;;;;;;;20.00;4.20;;;;;;;;;;5011713;28;20431;-78
2023/10/13 10:25:52;;;;;;;20.90;4.23;;;;;;;;;;5046047;28;20409;-77
2023/10/13 10:28:19;;;;;;;19.00;4.60;;;;;;;;;;5042398;28;20432;-77
2023/10/13 10:30:46;;;;;;;24.63;5.07;;;;;;;;;;5012466;28;20408;-76
2023/10/13 10:33:15;;;;;;;22.95;3.90;;;;;;;;;;5013191;28;20471;-75
2023/10/13 10:35:42;;;;;;;20.35;4.32;;;;;;;;;;5013608;28;20478;-77
2023/10/13 10:38:11;;;;;;;19.77;4.57;;;;;;;;;;5015133;28;20421;-76
2023/10/13 10:40:51;;;;;;;19.42;3.90;;;;;;;;;;5015306;28;20964;-77
2023/10/13 10:43:18;;;;;;;19.53;4.40;;;;;;;;;;5012252;28;20917;-75
2023/10/13 10:45:59;;;;;;;19.43;4.60;;;;;;;;;;5013470;28;20405;-75
2023/10/13 10:48:32;;;;;;;20.15;4.13;;;;;;;;;;5044483;28;20413;-74
2023/10/13 10:51:06;;;;;;;20.65;4.70;;;;;;;;;;5044727;28;21274;-77
2023/10/13 10:53:43;;;;;;;20.83;4.43;;;;;;;;;;5012529;28;20420;-76
2023/10/13 10:56:20;;;;;;;19.67;4.40;;;;;;;;;;5044751;28;20870;-77
2023/10/13 10:58:47;;;;;;;19.60;4.57;;;;;;;;;;5047412;28;20431;-76
2023/10/13 11:01:21;;;;;;;19.00;3.97;;;;;;;;;;5050701;28;20526;-75
2023/10/13 11:03:57;;;;;;;23.13;4.95;;;;;;;;;;5014321;28;20444;-75
2023/10/13 11:06:25;;;;;;;22.80;4.50;;;;;;;;;;5027955;28;20443;-75
2023/10/13 11:09:04;;;;;;;20.23;4.68;;;;;;;;;;5019713;28;20976;-75
2023/10/13 11:11:35;;;;;;;19.98;4.43;;;;;;;;;;5010836;28;21027;-75
2023/10/13 11:14:17;;;;;;;20.58;3.90;;;;;;;;;;5028298;28;20420;-78
2023/10/13 11:17:16;;;;;;;19.40;4.97;;;;;;;;;;5008404;28;20405;-76
2023/10/13 11:19:43;;;;;;;19.45;4.68;;;;;;;;;;5023356;28;20502;-76
2023/10/13 11:22:10;;;;;;;18.42;3.90;;;;;;;;;;5010300;28;20478;-75
2023/10/13 11:24:41;;;;;;;19.70;4.30;;;;;;;;;;5044846;28;20424;-75
2023/10/13 11:27:16;;;;;;;20.45;4.40;;;;;;;;;;5010733;28;20930;-74
2023/10/13 11:29:52;;;;;;;21.83;5.10;;;;;;;;;;5011592;28;20428;-76
2023/10/13 11:32:21;;;;;;;19.38;4.38;;;;;;;;;;5011479;28;20495;-75
2023/10/13 11:34:54;;;;;;;24.00;3.70;;;;;;;;;;5012272;28;20440;-79
2023/10/13 11:37:37;;;;;;;21.60;4.20;;;;;;;;;;5012585;28;20444;-76
2023/10/13 11:40:12;;;;;;;20.73;4.20;;;;;;;;;;5042719;28;21100;-74
2023/10/13 11:42:47;;;;;;;18.80;3.65;;;;;;;;;;5010966;28;20417;-76
2023/10/13 11:45:29;;;;;;;21.33;4.55;;;;;;;;;;5015526;28;20431;-76
2023/10/13 11:48:00;;;;;;;25.48;4.60;;;;;;;;;;5008334;28;20455;-76
2023/10/13 11:50:34;;;;;;;22.77;4.80;;;;;;;;;;5010823;28;20400;-76
2023/10/13 11:53:00;;;;;;;19.27;4.80;;;;;;;;;;5011788;28;20397;-77
2023/10/13 11:55:28;;;;;;;21.30;4.47;;;;;;;;;;5023863;28;20417;-75
2023/10/13 11:57:59;;;;;;;20.42;4.10;;;;;;;;;;5012334;28;20443;-75
2023/10/13 12:00:50;;;;;;;19.53;4.40;;;;;;;;;;5012657;28;20419;-76
2023/10/13 12:08:53;;;;;;;21.48;4.07;;;;;;;;;;4974808;28;20456;-76
2023/10/13 12:11:30;;;;;;;23.30;4.38;;;;;;;;;;5011108;28;20400;-74
2023/10/13 12:13:57;;;;;;;22.75;3.85;;;;;;;;;;5029649;28;20417;-77
2023/10/13 12:16:34;;;;;;;19.63;4.17;;;;;;;;;;5012151;28;20499;-75
2023/10/13 12:19:01;;;;;;;18.92;4.32;;;;;;;;;;5012827;28;20419;-75
2023/10/13 12:21:29;;;;;;;19.40;4.95;;;;;;;;;;5044536;28;20826;-76
2023/10/13 12:23:55;;;;;;;18.13;3.75;;;;;;;;;;5027515;28;20428;-76
2023/10/13 12:26:32;;;;;;;20.88;3.85;;;;;;;;;;5027798;28;20508;-75
2023/10/13 12:29:06;;;;;;;21.50;4.00;;;;;;;;;;5027999;28;20429;-76
2023/10/13 12:31:39;;;;;;;19.67;3.80;;;;;;;;;;5032066;28;20432;-75
2023/10/13 12:34:19;;;;;;;23.88;4.65;;;;;;;;;;5011984;28;20413;-75
2023/10/13 12:36:53;;;;;;;22.33;3.72;;;;;;;;;;5012639;28;20459;-76
2023/10/13 12:51:07;;;;;;;21.23;3.83;;;;;;;;;;5011300;28;20446;-75
2023/10/13 12:53:30;;;;;;;20.73;4.07;;;;;;;;;;5011721;28;20540;-76
2023/10/13 12:55:57;;;;;;;19.40;4.00;;;;;;;;;;4998664;28;20455;-75
2023/10/13 12:58:26;;;;;;;19.77;4.00;;;;;;;;;;5012904;28;20519;-78
2023/10/13 13:01:06;;;;;;;19.45;4.05;;;;;;;;;;5043279;28;20472;-73
2023/10/13 13:03:32;;;;;;;18.48;4.18;;;;;;;;;;5010890;28;20429;-73
2023/10/13 13:06:03;;;;;;;21.25;3.80;;;;;;;;;;5010764;28;20435;-73
2023/10/13 13:08:35;;;;;;;20.13;4.00;;;;;;;;;;5025954;28;20435;-73
2023/10/13 13:11:03;;;;;;;19.67;4.30;;;;;;;;;;5017134;28;20424;-77
2023/10/13 13:13:31;;;;;;;19.42;4.00;;;;;;;;;;5031325;28;20431;-74
2023/10/13 13:15:58;;;;;;;20.15;4.10;;;;;;;;;;5042701;28;20915;-73
2023/10/13 13:18:25;;;;;;;21.90;3.92;;;;;;;;;;5009773;28;20432;-75
2023/10/13 13:20:55;;;;;;;23.00;4.40;;;;;;;;;;5008344;28;20419;-75
2023/10/13 13:23:25;;;;;;;20.15;3.90;;;;;;;;;;5025263;28;20416;-75
2023/10/13 13:25:53;;;;;;;17.65;3.30;;;;;;;;;;5008619;28;21017;-75
2023/10/13 13:28:20;;;;;;;19.98;3.88;;;;;;;;;;5009102;28;20440;-75
2023/10/13 13:30:50;;;;;;;20.52;3.47;;;;;;;;;;5011315;28;20435;-73
2023/10/13 13:33:23;;;;;;;21.40;3.78;;;;;;;;;;5025918;28;20424;-75
2023/10/13 13:35:53;;;;;;;21.45;3.65;;;;;;;;;;5012068;28;20413;-73
2023/10/13 13:38:27;;;;;;;20.25;4.00;;;;;;;;;;5010064;28;21277;-76
2023/10/13 13:40:54;;;;;;;21.27;4.13;;;;;;;;;;5009067;28;21107;-76
2023/10/13 13:43:50;;;;;;;19.38;3.72;;;;;;;;;;5006781;28;20420;-74
2023/10/13 13:46:40;;;;;;;20.77;4.45;;;;;;;;;;5027877;28;20513;-72
2023/10/13 13:49:17;;;;;;;25.23;4.68;;;;;;;;;;5009451;28;20507;-74
2023/10/13 13:51:51;;;;;;;18.02;3.40;;;;;;;;;;5016319;28;20535;-73
2023/10/13 13:54:18;;;;;;;19.55;4.03;;;;;;;;;;5002465;28;20459;-74
2023/10/13 13:56:46;;;;;;;24.27;4.70;;;;;;;;;;4999136;28;20421;-74
2023/10/13 13:59:16;;;;;;;21.05;3.40;;;;;;;;;;5022082;28;20494;-73
2023/10/13 14:01:44;;;;;;;19.80;4.25;;;;;;;;;;5009635;28;20416;-73
2023/10/13 14:04:11;;;;;;;20.80;3.70;;;;;;;;;;5008696;28;20434;-74
2023/10/13 14:06:38;;;;;;;23.77;4.53;;;;;;;;;;5008288;28;20413;-74
2023/10/13 14:17:06;;;;;;;22.00;4.20;;;;;;;;;;5011111;28;20832;-77
2023/10/13 14:19:34;;;;;;;20.77;4.00;;;;;;;;;;5010511;28;20925;-75
2023/10/13 14:22:06;;;;;;;18.25;4.05;;;;;;;;;;5008200;28;20409;-74
2023/10/13 14:24:34;;;;;;;20.10;3.70;;;;;;;;;;5006738;28;20433;-75
2023/10/13 14:27:08;;;;;;;19.67;3.90;;;;;;;;;;5012972;28;20507;-76
2023/10/13 14:29:40;;;;;;;20.48;3.92;;;;;;;;;;5013267;28;20405;-77
2023/10/13 14:32:12;;;;;;;21.33;3.90;;;;;;;;;;5013756;28;20411;-76
2023/10/13 14:34:39;;;;;;;21.85;4.00;;;;;;;;;;5027719;28;20470;-76
2023/10/13 14:37:06;;;;;;;20.20;3.50;;;;;;;;;;5012519;28;20416;-75
2023/10/13 14:39:34;;;;;;;19.52;4.03;;;;;;;;;;5045804;28;20507;-76
2023/10/13 14:42:01;;;;;;;21.08;3.60;;;;;;;;;;5013790;28;20448;-75
2023/10/13 14:44:28;;;;;;;19.17;3.63;;;;;;;;;;4996887;28;20436;-78
2023/10/13 14:46:54;;;;;;;22.77;3.53;;;;;;;;;;5014317;28;20408;-76
2023/10/13 14:49:23;;;;;;;20.20;3.70;;;;;;;;;;5013651;28;20416;-76
2023/10/13 14:51:49;;;;;;;23.90;4.38;;;;;;;;;;4993587;28;20513;-78
2023/10/13 14:54:16;;;;;;;22.13;3.70;;;;;;;;;;5010911;28;20400;-76
2023/10/13 14:56:43;;;;;;;22.67;3.83;;;;;;;;;;5013979;28;20415;-76
2023/10/13 14:59:16;;;;;;;20.95;4.50;;;;;;;;;;5012111;28;20405;-75
2023/10/13 15:01:43;;;;;;;17.90;3.42;;;;;;;;;;5009456;28;20396;-78
2023/10/13 15:04:10;;;;;;;22.92;4.53;;;;;;;;;;5011014;28;20420;-76
2023/10/13 15:06:38;;;;;;;21.60;4.17;;;;;;;;;;5029006;28;21006;-76
2023/10/13 15:09:10;;;;;;;18.95;4.22;;;;;;;;;;5012151;28;20427;-76
2023/10/13 15:11:37;;;;;;;19.35;4.22;;;;;;;;;;5012950;28;20945;-76
2023/10/13 15:14:13;;;;;;;22.25;4.75;;;;;;;;;;5011397;28;20400;-76
2023/10/13 15:16:41;;;;;;;19.55;3.22;;;;;;;;;;5029058;28;20777;-76
2023/10/13 15:19:09;;;;;;;20.17;3.80;;;;;;;;;;5010979;28;20432;-76
2023/10/13 15:21:39;;;;;;;19.55;3.90;;;;;;;;;;5020549;28;20460;-75
2023/10/13 15:24:25;;;;;;;18.92;3.90;;;;;;;;;;5012134;28;20428;-77
2023/10/13 15:27:02;;;;;;;19.88;3.70;;;;;;;;;;5010999;28;20435;-73
2023/10/13 15:29:36;;;;;;;18.05;3.80;;;;;;;;;;5012973;28;20405;-77
2023/10/13 15:32:05;;;;;;;23.00;3.50;;;;;;;;;;5009382;28;20409;-73
2023/10/13 15:34:32;;;;;;;17.25;3.10;;;;;;;;;;5007040;28;20410;-77
2023/10/13 15:37:00;;;;;;;20.97;3.60;;;;;;;;;;5009047;28;20801;-76
2023/10/13 15:39:28;;;;;;;17.10;3.23;;;;;;;;;;5011631;28;20420;-75
2023/10/13 15:42:02;;;;;;;18.80;3.80;;;;;;;;;;5011224;28;20417;-76
2023/10/13 15:44:31;;;;;;;19.65;3.58;;;;;;;;;;5011737;28;20454;-75
2023/10/13 15:46:59;;;;;;;19.45;4.03;;;;;;;;;;5045170;28;20470;-75
2023/10/13 15:49:29;;;;;;;18.15;3.50;;;;;;;;;;5014528;28;20895;-76
2023/10/13 15:51:58;;;;;;;20.77;3.97;;;;;;;;;;5047472;28;20437;-77
2023/10/13 15:54:26;;;;;;;19.67;3.83;;;;;;;;;;5017837;28;20425;-77
2023/10/13 15:56:54;;;;;;;19.60;4.00;;;;;;;;;;5017565;28;20413;-77
2023/10/13 15:59:22;;;;;;;19.85;4.15;;;;;;;;;;5018976;28;20417;-77
2023/10/13 16:01:54;;;;;;;19.23;3.45;;;;;;;;;;5019287;28;20443;-74
2023/10/13 16:04:22;;;;;;;21.02;4.28;;;;;;;;;;5020279;28;20519;-76
2023/10/13 16:06:52;;;;;;;21.90;3.80;;;;;;;;;;5021937;28;20417;-74
2023/10/13 16:09:25;;;;;;;19.30;3.50;;;;;;;;;;5020085;28;20417;-76
2023/10/13 16:11:53;;;;;;;22.52;3.60;;;;;;;;;;5021161;28;20444;-77
2023/10/13 16:14:20;;;;;;;22.38;3.10;;;;;;;;;;5024009;28;20400;-74
2023/10/13 16:16:48;;;;;;;24.00;3.72;;;;;;;;;;5052636;28;20405;-74
2023/10/13 16:19:22;;;;;;;19.85;3.55;;;;;;;;;;5000243;28;20410;-75
2023/10/13 16:21:49;;;;;;;16.85;3.58;;;;;;;;;;5019132;28;20413;-77
2023/10/13 16:24:19;;;;;;;20.05;3.78;;;;;;;;;;5011008;28;20431;-74
2023/10/13 16:26:49;;;;;;;19.65;3.72;;;;;;;;;;5016084;28;20435;-78
2023/10/13 16:29:17;;;;;;;21.17;3.75;;;;;;;;;;5014839;28;20440;-76
2023/10/13 16:31:45;;;;;;;17.85;3.50;;;;;;;;;;5015932;28;20989;-76
2023/10/13 16:34:12;;;;;;;22.98;4.20;;;;;;;;;;5024798;28;20436;-77
2023/10/13 16:36:39;;;;;;;19.02;3.70;;;;;;;;;;5019162;28;21637;-76
2023/10/13 16:39:06;;;;;;;17.30;3.40;;;;;;;;;;5015940;28;20412;-77
2023/10/13 16:41:33;;;;;;;18.70;3.40;;;;;;;;;;5014945;28;20416;-76
2023/10/13 16:44:01;;;;;;;17.60;3.20;;;;;;;;;;5016138;28;20448;-77
2023/10/13 16:46:28;;;;;;;19.53;3.57;;;;;;;;;;5015062;28;20447;-76
2023/10/13 16:48:58;;;;;;;20.25;3.70;;;;;;;;;;5021878;28;20437;-78
2023/10/13 16:51:25;;;;;;;16.73;3.30;;;;;;;;;;5017767;28;21065;-79
2023/10/13 16:53:52;;;;;;;20.10;3.70;;;;;;;;;;5016338;28;20404;-78
2023/10/13 16:56:18;;;;;;;18.23;3.35;;;;;;;;;;5015767;28;20959;-76
2023/10/13 16:58:45;;;;;;;20.40;3.92;;;;;;;;;;5015486;28;20520;-79
2023/10/13 17:01:12;;;;;;;17.83;3.10;;;;;;;;;;5012610;28;20507;-77
2023/10/13 17:03:41;;;;;;;18.95;3.55;;;;;;;;;;5014425;28;20506;-78
2023/10/13 17:06:08;;;;;;;19.15;3.75;;;;;;;;;;5015519;28;21279;-79
2023/10/13 17:08:36;;;;;;;16.45;3.08;;;;;;;;;;5015224;28;20475;-78
2023/10/13 17:11:12;;;;;;;18.85;3.78;;;;;;;;;;5014024;28;20508;-76
2023/10/13 17:13:39;;;;;;;18.50;3.65;;;;;;;;;;5013466;28;20846;-76
2023/10/13 17:16:10;;;;;;;21.07;4.03;;;;;;;;;;5016462;28;20412;-76
2023/10/13 17:18:37;;;;;;;17.83;3.90;;;;;;;;;;5011728;28;20494;-76
2023/10/13 17:21:12;;;;;;;21.63;4.10;;;;;;;;;;5020902;28;20416;-76
2023/10/13 17:23:39;;;;;;;23.00;3.80;;;;;;;;;;5009890;28;20435;-76
2023/10/13 17:26:07;;;;;;;19.10;3.80;;;;;;;;;;5012159;28;20986;-77
2023/10/13 17:28:33;;;;;;;22.40;4.20;;;;;;;;;;5008891;28;20845;-77
2023/10/13 17:31:00;;;;;;;21.50;4.90;;;;;;;;;;5044241;28;20413;-77
2023/10/13 17:33:27;;;;;;;18.85;4.00;;;;;;;;;;5013050;28;20404;-77
2023/10/13 17:35:53;;;;;;;20.67;4.00;;;;;;;;;;5011188;28;20496;-77
2023/10/13 17:38:21;;;;;;;21.37;4.03;;;;;;;;;;5010839;28;20438;-77
2023/10/13 17:40:48;;;;;;;22.60;4.90;;;;;;;;;;5041675;28;20766;-79
2023/10/13 17:43:14;;;;;;;18.85;4.03;;;;;;;;;;5041222;28;20428;-77
2023/10/13 17:45:41;;;;;;;22.00;4.17;;;;;;;;;;5011319;28;20511;-76
2023/10/13 17:48:08;;;;;;;18.77;3.75;;;;;;;;;;5009268;28;20440;-77